Thursday, March 23, 2017, 12:23 AM EDT

KLKU, Louisa, Louisa County Airport/freeman Field

Location: Louisa, VA, United States Lat: 38.01
Local Time: 12:23 AM EDT ( 4:23 GMT) Lon: -77.97
Time Zone: US/Eastern Elev: 492 ft

Show me the last for .
Show Decoded

2017-03-22 23:55 METAR KLKU 230355Z AUTO 04004KT 10SM CLR 04/M11 A3044 RMK AO2 =
2017-03-22 23:35 METAR KLKU 230335Z AUTO 02003KT 10SM CLR 04/M11 A3044 RMK AO2 =
2017-03-22 23:15 METAR KLKU 230315Z AUTO 01003KT 10SM CLR 05/M11 A3043 RMK AO2 =
2017-03-22 22:55 METAR KLKU 230255Z AUTO 03004KT 10SM CLR 05/M11 A3042 RMK AO2 =
2017-03-22 22:35 METAR KLKU 230235Z AUTO 36005KT 10SM CLR 06/M12 A3042 RMK AO2 =
2017-03-22 22:15 METAR KLKU 230215Z AUTO 02003KT 10SM CLR 06/M11 A3041 RMK AO2 =
2017-03-22 21:55 METAR KLKU 230155Z AUTO 01005KT 10SM CLR 06/M11 A3041 RMK AO2 =
2017-03-22 21:35 METAR KLKU 230135Z AUTO 01004KT 10SM CLR 06/M11 A3041 RMK AO2 =
2017-03-22 21:15 METAR KLKU 230115Z AUTO 03003KT 10SM CLR 07/M11 A3040 RMK AO2 =
2017-03-22 20:55 METAR KLKU 230055Z AUTO 36004KT 10SM CLR 07/M11 A3038 RMK AO2 =
2017-03-22 20:35 METAR KLKU 230035Z AUTO 35005KT 10SM CLR 07/M11 A3037 RMK AO2 =
2017-03-22 20:15 METAR KLKU 230015Z AUTO 36005KT 10SM CLR 08/M11 A3036 RMK AO2 =
2017-03-22 19:55 METAR KLKU 222355Z AUTO 03005KT 10SM CLR 08/M11 A3035 RMK AO2 =
2017-03-22 19:35 METAR KLKU 222335Z AUTO 05004KT 10SM CLR 08/M10 A3034 RMK AO2 =
2017-03-22 19:15 METAR KLKU 222315Z AUTO 03006KT 10SM CLR 09/M10 A3033 RMK AO2 =
2017-03-22 18:55 METAR KLKU 222255Z AUTO 03007KT 10SM CLR 11/M10 A3032 RMK AO2 =
2017-03-22 18:35 METAR KLKU 222235Z AUTO 34008KT 10SM CLR 11/M09 A3031 RMK AO2 =
2017-03-22 18:15 METAR KLKU 222215Z AUTO 02007KT 10SM CLR 11/M10 A3030 RMK AO2 =
2017-03-22 17:55 METAR KLKU 222155Z AUTO 04009KT 10SM CLR 12/M09 A3028 RMK AO2 =
2017-03-22 17:35 METAR KLKU 222135Z AUTO 34007KT 10SM CLR 12/M09 A3028 RMK AO2 =
2017-03-22 17:15 METAR KLKU 222115Z AUTO 36005KT 10SM CLR 12/M09 A3027 RMK AO2 =
2017-03-22 16:55 METAR KLKU 222055Z AUTO 01007KT 310V030 10SM CLR 12/M09 A3027 RMK AO2 =
2017-03-22 16:35 METAR KLKU 222035Z AUTO 35008KT 10SM CLR 12/M09 A3026 RMK AO2 =
2017-03-22 16:15 METAR KLKU 222015Z AUTO 36010G20KT 10SM CLR 12/M09 A3026 RMK AO2 =
2017-03-22 15:55 METAR KLKU 221955Z AUTO 32008G15KT 10SM CLR 12/M08 A3026 RMK AO2 =
2017-03-22 15:35 METAR KLKU 221935Z AUTO 35012G16KT 310V010 10SM CLR 12/M08 A3026 RMK AO2 =
2017-03-22 15:15 METAR KLKU 221915Z AUTO 36009KT 10SM CLR 12/M08 A3026 RMK AO2 =
2017-03-22 14:55 METAR KLKU 221855Z AUTO 03011G22KT 10SM CLR 11/M09 A3026 RMK AO2 =
2017-03-22 14:35 METAR KLKU 221835Z AUTO 36007G18KT 10SM CLR 11/M08 A3026 RMK AO2 =
2017-03-22 14:15 METAR KLKU 221815Z AUTO 36008G15KT 330V030 10SM CLR 10/M09 A3027 RMK AO2 =
2017-03-22 13:55 METAR KLKU 221755Z AUTO 34009G15KT 300V010 10SM CLR 11/M08 A3027 RMK AO2 =
2017-03-22 13:35 METAR KLKU 221735Z AUTO 36011G16KT 10SM CLR 10/M09 A3026 RMK AO2 =
2017-03-22 13:15 METAR KLKU 221715Z AUTO 36014G21KT 10SM CLR 09/M09 A3026 RMK AO2 =
2017-03-22 12:50 METAR KLKU 221650Z AUTO 02009G17KT 10SM CLR 10/M08 A3026 RMK AO2 =
2017-03-22 12:35 METAR KLKU 221635Z AUTO 35012G17KT 330V030 10SM CLR 09/M08 A3026 RMK AO2 =
2017-03-22 12:15 METAR KLKU 221615Z AUTO 02010G17KT 10SM CLR 09/M08 A3025 RMK AO2 =
2017-03-22 11:55 METAR KLKU 221555Z AUTO 02009G20KT 10SM CLR 09/M08 A3025 RMK AO2 =
2017-03-22 11:35 METAR KLKU 221535Z AUTO 02014KT 10SM CLR 09/M08 A3024 RMK AO2 =
2017-03-22 11:15 METAR KLKU 221515Z AUTO 36012G17KT 330V040 10SM CLR 09/M06 A3023 RMK AO2 =
2017-03-22 10:55 METAR KLKU 221455Z AUTO 35011G22KT 10SM CLR 09/M05 A3021 RMK AO2 =
2017-03-22 10:35 METAR KLKU 221435Z AUTO 34018G26KT 10SM CLR 09/M04 A3020 RMK AO2 =
2017-03-22 10:15 METAR KLKU 221415Z AUTO 34019G25KT 10SM CLR 09/M03 A3017 RMK AO2 =
2017-03-22 09:55 METAR KLKU 221355Z AUTO 35010G21KT 10SM CLR 09/M02 A3017 RMK AO2 =
2017-03-22 09:35 METAR KLKU 221335Z AUTO 01010G16KT 10SM CLR 09/M02 A3016 RMK AO2 =
2017-03-22 09:15 METAR KLKU 221315Z AUTO 02008G14KT 000V060 10SM CLR 09/M01 A3014 RMK AO2 =
2017-03-22 08:55 METAR KLKU 221255Z AUTO 02009G14KT 350V070 10SM CLR 09/M01 A3013 RMK AO2 =
2017-03-22 08:35 METAR KLKU 221235Z AUTO 36010G20KT 330V060 10SM CLR 08/M01 A3011 RMK AO2 =
2017-03-22 08:15 METAR KLKU 221215Z AUTO 02011G20KT 10SM CLR 08/M01 A3009 RMK AO2 =
2017-03-22 07:55 METAR KLKU 221155Z AUTO 36013G19KT 10SM CLR 09/M01 A3007 RMK AO2 =
2017-03-22 07:35 METAR KLKU 221135Z AUTO 02011G23KT 10SM SCT060 10/M01 A3005 RMK AO2 =
2017-03-22 07:15 METAR KLKU 221115Z AUTO 36010G19KT 10SM BKN060 12/01 A3003 RMK AO2 =
2017-03-22 06:55 METAR KLKU 221055Z AUTO 36011G18KT 10SM BKN060 13/03 A3001 RMK AO2 =
2017-03-22 06:35 METAR KLKU 221035Z AUTO 32006KT 10SM SCT070 13/04 A2999 RMK AO2 =
2017-03-22 06:15 METAR KLKU 221015Z AUTO 31006KT 10SM BKN070 14/04 A2998 RMK AO2 =
2017-03-22 05:55 METAR KLKU 220955Z AUTO 31007KT 10SM CLR 14/05 A2997 RMK AO2 =
2017-03-22 05:35 METAR KLKU 220935Z AUTO 00000KT 10SM SCT110 14/05 A2997 RMK AO2 =
2017-03-22 05:15 METAR KLKU 220915Z AUTO 30008KT 10SM BKN110 14/06 A2996 RMK AO2 =
2017-03-22 04:55 METAR KLKU 220855Z AUTO 30006KT 10SM OVC110 15/06 A2995 RMK AO2 =
2017-03-22 04:35 METAR KLKU 220835Z AUTO 31008KT 10SM OVC110 15/06 A2994 RMK AO2 =
2017-03-22 04:15 METAR KLKU 220815Z AUTO 30009G14KT 10SM OVC100 15/06 A2994 RMK AO2 =
2017-03-22 03:55 METAR KLKU 220755Z AUTO 30008KT 10SM OVC100 15/06 A2994 RMK AO2 =
2017-03-22 03:35 METAR KLKU 220735Z AUTO 30007KT 10SM OVC100 14/06 A2994 RMK AO2 =
2017-03-22 03:15 METAR KLKU 220715Z AUTO 25005KT 10SM OVC090 14/08 A2994 RMK AO2 =
2017-03-22 02:55 METAR KLKU 220655Z AUTO 30007KT 10SM OVC090 14/06 A2994 RMK AO2 =
2017-03-22 02:35 METAR KLKU 220635Z AUTO 24003KT 10SM BKN090 OVC100 13/08 A2993 RMK AO2 =
2017-03-22 02:15 METAR KLKU 220615Z AUTO 27003KT 10SM OVC090 12/09 A2992 RMK AO2 =
2017-03-22 01:55 METAR KLKU 220555Z AUTO 00000KT 10SM OVC090 12/09 A2993 RMK AO2 =
2017-03-22 01:35 METAR KLKU 220535Z AUTO 00000KT 10SM OVC100 12/09 A2993 RMK AO2 =
2017-03-22 01:15 METAR KLKU 220515Z AUTO 00000KT 10SM BKN100 120 11/09 A2993 RMK AO2 =
2017-03-22 00:55 METAR KLKU 220455Z AUTO 31004KT 10SM BKN120 13/09 A2993 RMK AO2 =
2017-03-22 00:35 METAR KLKU 220435Z AUTO 28004KT 10SM BKN110 12/09 A2994 RMK AO2 =

Support USWX by starting your Amazon purchase here.